Wind Gusting 00 knots
04
May 29, 2017 9:08 AM EDT
Weather Information
Wind Direction
  230 °
Wind Speed
  04 kt (5 mph)
Wind Gust
  00 kt (0 mph)
Altimeter
29.96 in
Visibility
10 SM
Temperature
20° C
68° F
Dewpoint
16° C
61° F
Humidity
78%
Sky Condition
Clear
VFR

METAR KIMS 291308Z AUTO 23004KT 10SM CLR 20/16 A2996 RMK AO1

*Background is not an actual portrayal of the airport.